Time;durP1;ratioP1;P1;durP2;ratioP2;P2;SDS_P1;SDS_P2;PMS_P1;PMS_P2;Temp;Humidity;BMP_temperature;BMP_pressure;BME280_temperature;BME280_humidity;BME280_pressure;Samples;Min_cycle;Max_cycle;Signal;HPM_P1;HPM_P2
2020/12/23 00:01:36;;;;;;;37.23;22.77;;;;;;;2.98;73.02;96611.05;1804744;79;21632;-56
2020/12/23 00:04:04;;;;;;;36.48;22.27;;;;;;;2.97;72.99;96604.69;1777903;79;21057;-55
2020/12/23 00:06:35;;;;;;;32.28;20.60;;;;;;;3.03;72.98;96604.45;1790433;79;21870;-56
2020/12/23 00:09:04;;;;;;;30.05;19.48;;;;;;;3.08;72.71;96611.52;1762907;80;21194;-56
2020/12/23 00:11:33;;;;;;;30.95;19.52;;;;;;;3.00;72.93;96601.55;1775970;80;25117;-56
2020/12/23 00:14:01;;;;;;;;;;;;;;;3.00;73.13;96598.17;1758047;80;21081;-56
2020/12/23 00:16:30;;;;;;;14.47;9.68;;;;;;;3.04;73.35;96595.42;1754203;80;21745;-55
2020/12/23 00:18:57;;;;;;;6.13;4.27;;;;;;;3.08;73.96;96593.56;1732649;82;21126;-54
2020/12/23 00:21:25;;;;;;;3.70;2.67;;;;;;;3.18;74.57;96594.85;1704610;83;21636;-55
2020/12/23 00:23:52;;;;;;;5.42;3.80;;;;;;;3.36;74.84;96593.26;1709460;83;21522;-55
2020/12/23 00:26:21;;;;;;;21.68;13.98;;;;;;;3.56;74.87;96602.67;1728426;82;21074;-54
2020/12/23 00:28:48;;;;;;;38.05;23.87;;;;;;;3.73;74.38;96618.63;1726947;83;21157;-54
2020/12/23 00:31:16;;;;;;;40.50;26.15;;;;;;;3.81;72.89;96627.29;1725128;83;21163;-55
2020/12/23 00:33:45;;;;;;;40.90;24.98;;;;;;;3.75;72.28;96643.80;1684434;84;23495;-55
2020/12/23 00:36:14;;;;;;;38.92;23.40;;;;;;;3.67;72.02;96630.45;1686845;84;21068;-56
2020/12/23 00:38:42;;;;;;;22.98;13.80;;;;;;;3.61;72.05;96618.70;1685280;83;21092;-56
2020/12/23 00:41:10;;;;;;;13.30;9.50;;;;;;;3.58;72.59;96614.16;1685230;84;21215;-56
2020/12/23 00:43:38;;;;;;;10.25;7.08;;;;;;;3.58;72.94;96612.42;1698822;83;21539;-55
2020/12/23 00:46:12;;;;;;;4.25;3.20;;;;;;;3.67;73.58;96607.37;1697262;84;21382;-54
2020/12/23 00:48:40;;;;;;;2.72;1.50;;;;;;;3.80;73.94;96602.52;1681759;85;21075;-55
2020/12/23 00:51:15;;;;;;;22.30;15.25;;;;;;;3.96;74.18;96601.41;1682696;84;21149;-54
2020/12/23 00:53:43;;;;;;;29.80;17.32;;;;;;;4.13;73.54;96601.93;1681778;85;21071;-55
2020/12/23 00:56:13;;;;;;;26.12;15.75;;;;;;;4.23;72.53;96598.90;1684397;84;21096;-55
2020/12/23 00:58:41;;;;;;;15.78;10.38;;;;;;;4.23;71.91;96592.48;1710152;84;21389;-56
2020/12/23 01:01:09;;;;;;;3.87;2.40;;;;;;;4.23;72.04;96587.34;1682972;84;21149;-54
2020/12/23 01:03:38;;;;;;;2.25;1.55;;;;;;;4.27;72.09;96580.78;1686859;84;21146;-55
2020/12/23 01:06:10;;;;;;;0.70;0.55;;;;;;;4.34;72.18;96575.30;1681928;85;21218;-55
2020/12/23 01:08:38;;;;;;;0.57;0.57;;;;;;;4.46;71.43;96562.77;1688140;82;21593;-56
2020/12/23 01:11:11;;;;;;;1.00;0.90;;;;;;;4.50;71.41;96570.73;1730949;82;21206;-55
2020/12/23 01:13:39;;;;;;;1.15;1.05;;;;;;;4.51;71.36;96563.42;1686436;83;21161;-56
2020/12/23 01:16:08;;;;;;;6.62;5.92;;;;;;;4.54;71.47;96575.66;1724233;82;21130;-54
2020/12/23 01:18:35;;;;;;;5.92;4.78;;;;;;;4.52;71.57;96577.48;1714703;82;21526;-56
2020/12/23 01:21:03;;;;;;;6.40;4.85;;;;;;;4.47;71.84;96585.00;1706184;82;21621;-55
2020/12/23 01:23:31;;;;;;;5.65;4.15;;;;;;;4.49;71.73;96583.19;1704089;83;23653;-55
2020/12/23 01:25:59;;;;;;;3.02;2.62;;;;;;;4.50;71.78;96586.15;1732053;81;21140;-55
2020/12/23 01:28:28;;;;;;;1.90;1.75;;;;;;;4.57;71.56;96579.81;1756879;81;21160;-56
2020/12/23 01:30:56;;;;;;;13.75;8.78;;;;;;;4.66;71.39;96579.39;1740450;81;21173;-55
2020/12/23 01:33:26;;;;;;;17.07;9.95;;;;;;;4.78;70.97;96581.83;1774357;80;21175;-55
2020/12/23 01:35:53;;;;;;;8.63;5.67;;;;;;;4.85;70.23;96579.80;1782116;79;21352;-55
2020/12/23 01:38:21;;;;;;;7.47;4.50;;;;;;;4.81;69.37;96570.12;1800828;79;21068;-56
2020/12/23 01:41:00;;;;;;;9.43;5.90;;;;;;;4.86;69.47;96569.91;1811790;79;21153;-56
2020/12/23 01:43:28;;;;;;;7.42;6.03;;;;;;;4.92;69.18;96571.72;1796281;79;21125;-56
2020/12/23 01:45:56;;;;;;;11.35;8.18;;;;;;;4.97;69.05;96567.19;1809996;79;21564;-55
2020/12/23 01:48:31;;;;;;;20.27;12.10;;;;;;;5.00;68.91;96571.80;1784206;79;21187;-56
2020/12/23 01:51:03;;;;;;;28.27;18.07;;;;;;;5.05;68.85;96564.69;1791013;79;21140;-55
2020/12/23 01:53:30;;;;;;;21.45;13.20;;;;;;;5.07;68.30;96568.86;1772710;79;21116;-55
2020/12/23 01:55:59;;;;;;;16.32;10.93;;;;;;;5.05;68.21;96577.55;1757799;80;21123;-55
2020/12/23 01:58:28;;;;;;;21.27;13.00;;;;;;;5.02;68.22;96577.72;1787494;79;21168;-55
2020/12/23 02:00:56;;;;;;;21.60;13.85;;;;;;;5.01;68.23;96580.72;1800834;79;22404;-55
2020/12/23 02:03:25;;;;;;;24.85;15.58;;;;;;;5.00;68.30;96590.65;1800148;79;24666;-57
2020/12/23 02:05:55;;;;;;;25.68;15.93;;;;;;;4.98;68.29;96597.15;1782651;79;21053;-55
2020/12/23 02:08:23;;;;;;;14.00;9.83;;;;;;;4.97;68.27;96599.80;1750498;79;21091;-56
2020/12/23 02:10:52;;;;;;;9.28;6.55;;;;;;;4.96;68.66;96589.94;1784625;79;21078;-55
2020/12/23 02:13:38;;;;;;;5.85;3.90;;;;;;;4.96;69.17;96586.08;1770834;79;21370;-56
2020/12/23 02:16:05;;;;;;;3.70;3.05;;;;;;;4.98;69.37;96581.72;1786489;79;21170;-55
2020/12/23 02:18:34;;;;;;;4.55;2.77;;;;;;;5.00;69.89;96580.36;1767456;81;21081;-55
2020/12/23 02:21:02;;;;;;;2.80;1.90;;;;;;;5.04;70.16;96574.15;1806157;79;21494;-56
2020/12/23 02:23:30;;;;;;;0.93;0.90;;;;;;;5.06;70.25;96571.04;1809095;79;21156;-55
2020/12/23 02:25:58;;;;;;;1.40;1.30;;;;;;;5.07;70.22;96562.43;1789440;79;21568;-54
2020/12/23 02:28:26;;;;;;;0.70;0.70;;;;;;;5.08;70.27;96564.11;1774601;79;21156;-55
2020/12/23 02:31:01;;;;;;;0.47;0.30;;;;;;;5.07;69.74;96557.28;1788581;79;21157;-55
2020/12/23 02:33:29;;;;;;;0.47;0.30;;;;;;;5.07;69.75;96555.18;1791982;79;21120;-56
2020/12/23 02:35:57;;;;;;;0.40;0.40;;;;;;;5.07;69.41;96539.75;1800804;79;21555;-56
2020/12/23 02:38:25;;;;;;;0.40;0.40;;;;;;;5.07;69.46;96537.17;1778186;79;22824;-56
2020/12/23 02:40:53;;;;;;;2.10;0.40;;;;;;;5.06;69.53;96531.64;1785151;79;21487;-55
2020/12/23 02:43:21;;;;;;;0.60;0.35;;;;;;;5.02;69.44;96530.97;1782104;79;21058;-55
2020/12/23 02:45:48;;;;;;;0.50;0.50;;;;;;;4.97;69.53;96525.22;1765057;79;21140;-55
2020/12/23 02:48:16;;;;;;;1.00;0.68;;;;;;;4.93;69.62;96528.84;1811885;79;21938;-55
2020/12/23 02:50:45;;;;;;;0.60;0.60;;;;;;;4.92;69.81;96528.02;1784769;79;23539;-55
2020/12/23 02:53:13;;;;;;;2.75;1.00;;;;;;;4.92;69.88;96537.02;1786781;79;21168;-55
2020/12/23 02:55:42;;;;;;;1.10;0.65;;;;;;;4.92;69.88;96537.02;1807677;78;21083;-56
2020/12/23 02:58:11;;;;;;;0.70;0.50;;;;;;;5.00;69.43;96534.08;1787386;79;21093;-56
2020/12/23 03:00:41;;;;;;;0.47;0.47;;;;;;;5.04;69.33;96524.47;1783655;79;21145;-56
2020/12/23 03:03:09;;;;;;;0.30;0.30;;;;;;;5.08;68.95;96529.81;1789828;79;21388;-56
2020/12/23 03:05:37;;;;;;;0.70;0.65;;;;;;;5.08;68.75;96537.10;1771797;80;21137;-55
2020/12/23 03:08:05;;;;;;;0.60;0.40;;;;;;;5.12;69.01;96539.06;1804484;79;21049;-56
2020/12/23 03:10:33;;;;;;;0.55;0.35;;;;;;;5.15;68.70;96533.77;1793171;79;21057;-56
2020/12/23 03:13:01;;;;;;;0.57;0.40;;;;;;;5.16;68.73;96534.98;1801810;79;21207;-56
2020/12/23 03:15:29;;;;;;;0.30;0.30;;;;;;;5.20;68.47;96532.23;1795936;78;21414;-55
2020/12/23 03:17:56;;;;;;;0.82;0.35;;;;;;;5.23;68.33;96533.36;1802297;79;21170;-55
2020/12/23 03:20:24;;;;;;;0.40;0.40;;;;;;;5.26;68.00;96538.36;1812909;79;21502;-56
2020/12/23 03:22:52;;;;;;;1.70;0.50;;;;;;;5.29;67.47;96524.88;1796752;79;21084;-55
2020/12/23 03:25:22;;;;;;;0.20;0.20;;;;;;;5.30;67.26;96525.27;1798175;78;21105;-55
2020/12/23 03:27:49;;;;;;;0.88;0.45;;;;;;;5.31;66.97;96519.23;1775836;79;21207;-55
2020/12/23 03:30:17;;;;;;;0.60;0.40;;;;;;;5.31;67.13;96528.23;1765288;79;21160;-56
2020/12/23 03:32:45;;;;;;;0.30;0.30;;;;;;;5.37;67.15;96521.11;1799915;79;21073;-55
2020/12/23 03:35:14;;;;;;;0.60;0.60;;;;;;;5.44;66.76;96526.31;1786501;79;21184;-56
2020/12/23 03:37:42;;;;;;;0.20;0.20;;;;;;;5.51;66.47;96528.97;1807875;79;21478;-56
2020/12/23 03:40:11;;;;;;;0.60;0.57;;;;;;;5.56;66.55;96532.56;1765218;80;21396;-55
2020/12/23 03:42:39;;;;;;;0.72;0.50;;;;;;;5.58;66.32;96536.73;1784402;79;21129;-55
2020/12/23 03:45:08;;;;;;;0.68;0.68;;;;;;;5.61;65.70;96520.28;1787895;79;21132;-56
2020/12/23 03:47:36;;;;;;;0.72;0.70;;;;;;;5.63;65.68;96529.61;1802673;79;22062;-55
2020/12/23 03:50:05;;;;;;;0.70;0.60;;;;;;;5.65;65.34;96536.78;1742404;81;21065;-56
2020/12/23 03:52:34;;;;;;;1.12;0.90;;;;;;;5.66;65.31;96534.60;1759491;80;21088;-55
2020/12/23 03:55:01;;;;;;;1.30;1.00;;;;;;;5.66;64.52;96528.16;1807949;79;21077;-55
2020/12/23 03:57:31;;;;;;;0.93;0.70;;;;;;;5.66;64.79;96538.93;1805781;79;21059;-56
2020/12/23 03:59:59;;;;;;;0.80;0.60;;;;;;;5.65;64.71;96543.22;1805731;79;21145;-56
2020/12/23 04:02:27;;;;;;;0.70;0.70;;;;;;;5.68;64.61;96549.97;1777888;79;21108;-56
2020/12/23 04:04:55;;;;;;;1.75;0.90;;;;;;;5.72;64.92;96555.32;1742518;81;21061;-56
2020/12/23 04:07:23;;;;;;;0.42;0.42;;;;;;;5.76;64.87;96559.88;1729286;82;21089;-54
2020/12/23 04:09:50;;;;;;;0.57;0.57;;;;;;;5.82;64.73;96558.25;1758008;80;21526;-56
2020/12/23 04:12:18;;;;;;;1.00;0.90;;;;;;;5.86;64.53;96565.74;1755360;80;21137;-56
2020/12/23 04:14:46;;;;;;;1.30;1.20;;;;;;;5.89;64.89;96566.05;1757183;80;21141;-56
2020/12/23 04:17:14;;;;;;;0.80;0.80;;;;;;;5.90;65.78;96567.27;1742125;81;22357;-56
2020/12/23 04:19:42;;;;;;;1.30;0.50;;;;;;;5.92;65.96;96547.02;1716686;82;21107;-56
2020/12/23 04:22:10;;;;;;;1.23;0.60;;;;;;;5.86;65.97;96564.92;1721633;82;21148;-56
2020/12/23 04:24:39;;;;;;;0.57;0.57;;;;;;;5.85;66.29;96565.82;1737690;81;21362;-56
2020/12/23 04:27:07;;;;;;;;;;;;;;;5.87;65.62;96571.72;1745157;82;21181;-56
2020/12/23 04:29:35;;;;;;;0.70;0.70;;;;;;;5.85;65.33;96564.53;1773508;80;21001;-55
2020/12/23 04:32:03;;;;;;;3.52;0.80;;;;;;;5.81;65.23;96563.87;1754095;81;21228;-54
2020/12/23 04:34:31;;;;;;;0.78;0.68;;;;;;;5.84;65.00;96552.59;1744366;80;21474;-55
2020/12/23 04:36:59;;;;;;;0.60;0.60;;;;;;;5.84;64.97;96559.03;1746135;80;21093;-54
2020/12/23 04:39:26;;;;;;;0.70;0.70;;;;;;;5.85;65.08;96558.09;1747819;80;21652;-56
2020/12/23 04:41:54;;;;;;;0.97;0.60;;;;;;;5.87;64.97;96542.95;1748551;80;23621;-55
2020/12/23 04:44:23;;;;;;;0.90;0.65;;;;;;;5.89;64.86;96556.58;1724805;81;21107;-55
2020/12/23 04:46:50;;;;;;;0.72;0.70;;;;;;;5.93;64.89;96550.80;1733151;81;21133;-55
2020/12/23 04:49:21;;;;;;;0.98;0.80;;;;;;;5.99;64.84;96547.13;1728520;81;22066;-55
2020/12/23 04:51:54;;;;;;;0.85;0.85;;;;;;;6.03;64.67;96548.14;1718324;81;21156;-54
2020/12/23 04:54:24;;;;;;;0.80;0.80;;;;;;;6.08;64.36;96538.88;1729527;83;21274;-56
2020/12/23 04:56:52;;;;;;;0.72;0.72;;;;;;;6.13;64.41;96545.09;1736032;81;21157;-56
2020/12/23 04:59:22;;;;;;;1.45;1.35;;;;;;;6.13;64.29;96547.66;1729606;83;21503;-55
2020/12/23 05:01:50;;;;;;;1.55;1.45;;;;;;;6.14;64.33;96555.31;1740308;81;21148;-56
2020/12/23 05:04:18;;;;;;;1.00;1.00;;;;;;;6.13;64.38;96552.34;1703401;83;21137;-56
2020/12/23 05:06:47;;;;;;;1.20;1.10;;;;;;;6.13;64.44;96565.23;1733744;81;21457;-55
2020/12/23 05:09:14;;;;;;;0.90;0.90;;;;;;;6.14;64.37;96560.46;1735960;81;21089;-56
2020/12/23 05:11:42;;;;;;;1.02;1.00;;;;;;;6.15;64.51;96557.42;1772906;81;21627;-57
2020/12/23 05:14:10;;;;;;;1.50;1.03;;;;;;;6.14;64.50;96560.93;1754602;80;21146;-56
2020/12/23 05:16:39;;;;;;;1.00;1.00;;;;;;;6.12;64.52;96568.73;1791686;79;21569;-55
2020/12/23 05:19:07;;;;;;;1.15;1.00;;;;;;;6.08;64.76;96565.50;1753200;81;21343;-55
2020/12/23 05:21:35;;;;;;;1.35;1.25;;;;;;;6.10;64.88;96577.45;1711942;82;21503;-55
2020/12/23 05:24:04;;;;;;;1.85;1.50;;;;;;;6.11;64.82;96572.22;1718254;82;21601;-56
2020/12/23 05:26:45;;;;;;;2.00;1.80;;;;;;;6.16;64.79;96574.55;1693667;84;21270;-56
2020/12/23 05:29:15;;;;;;;2.40;1.90;;;;;;;6.18;64.74;96573.54;1656170;84;21093;-56
2020/12/23 05:31:44;;;;;;;1.75;1.30;;;;;;;6.18;64.72;96570.97;1697610;82;21388;-56
2020/12/23 05:34:12;;;;;;;2.27;1.80;;;;;;;6.18;64.60;96569.67;1725926;83;21086;-55
2020/12/23 05:36:41;;;;;;;1.95;1.50;;;;;;;6.17;64.62;96572.36;1573590;85;21086;-55
2020/12/23 05:39:09;;;;;;;1.60;1.30;;;;;;;6.15;64.68;96581.89;1701165;84;21146;-56
2020/12/23 05:41:37;;;;;;;1.90;1.70;;;;;;;6.14;64.73;96574.63;1677351;84;21216;-56
2020/12/23 05:44:25;;;;;;;2.00;1.70;;;;;;;6.18;64.52;96577.88;1655024;85;21443;-56
2020/12/23 05:46:54;;;;;;;1.40;1.30;;;;;;;6.18;64.59;96575.30;1667552;84;21089;-56
2020/12/23 05:49:25;;;;;;;1.80;1.50;;;;;;;6.21;64.51;96566.94;1662076;84;21149;-55
2020/12/23 05:51:54;;;;;;;1.00;1.00;;;;;;;6.20;64.56;96567.88;1684185;84;21136;-56
2020/12/23 05:54:23;;;;;;;1.07;1.00;;;;;;;6.24;64.47;96576.27;1650271;84;21743;-56
2020/12/23 05:56:52;;;;;;;1.20;1.10;;;;;;;6.29;64.47;96579.42;1663588;84;21404;-56
2020/12/23 05:59:23;;;;;;;1.02;0.93;;;;;;;6.34;64.36;96575.31;1703354;84;21198;-55
2020/12/23 06:01:51;;;;;;;0.72;0.72;;;;;;;6.36;64.22;96563.17;1681338;84;21160;-55
2020/12/23 06:04:18;;;;;;;1.27;1.17;;;;;;;6.38;63.98;96566.48;1681014;83;21224;-55
2020/12/23 06:06:48;;;;;;;2.25;0.90;;;;;;;6.40;63.91;96580.15;1723800;83;21147;-55
2020/12/23 06:09:17;;;;;;;0.67;0.67;;;;;;;6.39;63.97;96574.14;1701380;83;21225;-56
2020/12/23 06:11:47;;;;;;;0.95;0.95;;;;;;;6.40;63.85;96582.27;1720649;83;21114;-56
2020/12/23 06:14:24;;;;;;;1.32;1.22;;;;;;;6.43;63.84;96570.50;1718942;83;21104;-55
2020/12/23 06:17:03;;;;;;;1.10;1.00;;;;;;;6.44;63.89;96585.50;1722949;83;21160;-54
2020/12/23 06:19:37;;;;;;;0.68;0.68;;;;;;;6.47;63.67;96579.36;1723357;83;21104;-56
2020/12/23 06:22:08;;;;;;;1.60;1.22;;;;;;;6.47;63.54;96576.31;1727086;83;21390;-55
2020/12/23 06:24:36;;;;;;;1.75;1.10;;;;;;;6.49;63.45;96587.83;1723944;83;21084;-55
2020/12/23 06:27:10;;;;;;;1.87;1.42;;;;;;;6.49;63.42;96575.77;1723258;83;21064;-55
2020/12/23 06:29:41;;;;;;;1.00;0.90;;;;;;;6.54;63.59;96579.39;1727413;83;21123;-55
2020/12/23 06:32:23;;;;;;;4.70;3.12;;;;;;;6.58;63.52;96573.98;1723710;83;21195;-54
2020/12/23 06:34:59;;;;;;;7.83;4.92;;;;;;;6.62;63.30;96576.75;1722989;83;21266;-54
2020/12/23 06:37:32;;;;;;;0.70;0.70;;;;;;;6.65;63.22;96578.81;1723914;83;21659;-56
2020/12/23 06:40:03;;;;;;;1.45;1.35;;;;;;;6.64;63.13;96584.41;1701429;83;21140;-54
2020/12/23 06:42:31;;;;;;;1.25;1.10;;;;;;;6.59;63.23;96570.94;1723028;81;21182;-54
2020/12/23 06:45:01;;;;;;;2.50;2.30;;;;;;;6.58;63.53;96579.61;1735297;81;21312;-55
2020/12/23 06:47:31;;;;;;;1.62;1.52;;;;;;;6.60;63.61;96586.80;1719727;83;21218;-55
2020/12/23 06:50:27;;;;;;;1.87;1.40;;;;;;;6.63;63.31;96588.74;1695497;83;21181;-55
2020/12/23 06:52:55;;;;;;;2.00;1.80;;;;;;;6.62;63.25;96589.64;1693388;84;21074;-55
2020/12/23 06:55:46;;;;;;;1.65;1.45;;;;;;;6.57;63.48;96603.72;1689130;84;21101;-56
2020/12/23 06:58:39;;;;;;;4.35;3.00;;;;;;;6.55;63.65;96611.53;1675745;85;21504;-56
2020/12/23 07:01:20;;;;;;;1.72;1.62;;;;;;;6.57;63.70;96609.69;1677577;84;21385;-55
2020/12/23 07:03:48;;;;;;;1.30;1.20;;;;;;;6.60;63.87;96608.24;1716579;83;21157;-56
2020/12/23 07:06:31;;;;;;;1.67;1.52;;;;;;;6.66;63.37;96604.52;1696092;84;21095;-55
2020/12/23 07:09:03;;;;;;;2.70;1.50;;;;;;;6.69;63.11;96611.23;1691379;84;21152;-54
2020/12/23 07:11:33;;;;;;;1.20;1.10;;;;;;;6.70;63.27;96615.02;1688173;85;21588;-55
2020/12/23 07:14:01;;;;;;;1.00;1.00;;;;;;;6.73;62.84;96605.83;1675400;85;21398;-55
2020/12/23 07:16:40;;;;;;;1.15;1.15;;;;;;;6.78;62.56;96603.83;1680301;85;21158;-55
2020/12/23 07:19:08;;;;;;;1.98;1.50;;;;;;;6.81;62.37;96615.73;1643374;85;21136;-55
2020/12/23 07:21:37;;;;;;;2.17;1.45;;;;;;;6.84;62.19;96601.36;1704316;83;21068;-55
2020/12/23 07:24:05;;;;;;;2.05;1.90;;;;;;;6.85;62.04;96617.22;1714880;83;21962;-55
2020/12/23 07:26:37;;;;;;;;;;;;;;;6.87;61.96;96614.55;1699366;83;21375;-55
2020/12/23 07:29:09;;;;;;;3.77;1.22;;;;;;;6.88;61.75;96611.06;1694953;83;20230;-55
2020/12/23 07:31:42;;;;;;;1.60;1.35;;;;;;;6.87;61.51;96593.45;1717913;83;21592;-55
2020/12/23 07:34:10;;;;;;;2.08;1.50;;;;;;;6.83;61.53;96602.29;1720738;83;21190;-55
2020/12/23 07:36:38;;;;;;;1.85;1.50;;;;;;;6.81;61.82;96606.24;1724288;83;21136;-56
2020/12/23 07:39:06;;;;;;;2.42;2.05;;;;;;;6.79;61.75;96608.52;1722975;83;23394;-55
2020/12/23 07:41:33;;;;;;;2.45;1.70;;;;;;;6.78;61.86;96613.32;1722890;83;21089;-56
2020/12/23 07:44:01;;;;;;;1.45;1.35;;;;;;;6.76;61.93;96617.70;1722887;83;21128;-54
2020/12/23 07:46:28;;;;;;;1.72;1.50;;;;;;;6.75;61.91;96631.06;1722734;83;21080;-54
2020/12/23 07:48:56;;;;;;;1.95;1.80;;;;;;;6.73;61.80;96610.98;1722932;83;21073;-55
2020/12/23 07:51:24;;;;;;;1.45;1.35;;;;;;;6.71;62.07;96632.17;1698181;83;21220;-54
2020/12/23 07:53:51;;;;;;;2.15;1.77;;;;;;;6.69;62.35;96624.95;1722870;83;21096;-54
2020/12/23 07:56:19;;;;;;;1.90;1.55;;;;;;;6.71;62.39;96628.30;1722992;83;21586;-54
2020/12/23 07:58:49;;;;;;;1.42;1.32;;;;;;;6.75;62.43;96620.75;1722892;83;21806;-54
2020/12/23 08:01:16;;;;;;;1.70;1.30;;;;;;;6.82;62.32;96631.56;1698284;83;21089;-54
2020/12/23 08:03:44;;;;;;;1.47;1.37;;;;;;;6.87;62.29;96629.56;1724024;83;21418;-54
2020/12/23 08:06:13;;;;;;;1.80;1.37;;;;;;;6.91;62.19;96636.70;1722869;83;21176;-54
2020/12/23 08:08:41;;;;;;;2.02;1.82;;;;;;;6.94;62.01;96627.03;1722927;83;21132;-54
2020/12/23 08:11:15;;;;;;;1.42;1.32;;;;;;;6.97;62.27;96632.46;1722823;83;21163;-54
2020/12/23 08:13:43;;;;;;;2.85;1.50;;;;;;;7.04;62.09;96640.25;1723051;83;21525;-54
2020/12/23 08:16:15;;;;;;;2.12;1.90;;;;;;;7.08;61.84;96633.17;1725503;83;21210;-56
2020/12/23 08:18:44;;;;;;;1.87;1.70;;;;;;;7.13;61.89;96626.00;1726886;83;21528;-55
2020/12/23 08:21:16;;;;;;;2.08;1.87;;;;;;;7.19;61.73;96639.39;1726945;83;21072;-55
2020/12/23 08:23:47;;;;;;;2.05;1.87;;;;;;;7.25;61.52;96620.60;1726854;83;21092;-55
2020/12/23 08:26:15;;;;;;;1.90;1.77;;;;;;;7.28;61.50;96636.73;1641687;86;21102;-55
2020/12/23 08:28:45;;;;;;;2.00;1.80;;;;;;;7.34;61.51;96631.23;1675452;85;21220;-54
2020/12/23 08:31:25;;;;;;;2.53;2.33;;;;;;;7.39;61.27;96631.45;1675640;85;21135;-54
2020/12/23 08:33:52;;;;;;;1.90;1.75;;;;;;;7.43;61.38;96654.86;1662865;86;21154;-55
2020/12/23 08:36:21;;;;;;;2.50;2.30;;;;;;;7.48;61.23;96655.43;1652288;85;21183;-55
2020/12/23 08:38:49;;;;;;;2.52;2.08;;;;;;;7.52;61.09;96638.86;1662828;86;21099;-55
2020/12/23 08:41:22;;;;;;;5.45;2.05;;;;;;;7.54;61.01;96641.70;1692317;84;21205;-55
2020/12/23 08:43:50;;;;;;;2.52;2.33;;;;;;;7.59;60.77;96640.63;1675408;85;21167;-55
2020/12/23 08:46:25;;;;;;;4.62;2.02;;;;;;;7.60;60.88;96636.67;1677093;85;21224;-56
2020/12/23 08:48:53;;;;;;;1.92;1.80;;;;;;;7.60;60.84;96635.38;1678696;85;21074;-55
2020/12/23 08:51:23;;;;;;;1.98;1.87;;;;;;;7.57;60.74;96638.60;1653600;85;21571;-55
2020/12/23 08:53:58;;;;;;;2.83;2.22;;;;;;;7.50;60.91;96641.97;1678910;85;22442;-56
2020/12/23 08:56:29;;;;;;;3.10;2.50;;;;;;;7.46;60.66;96632.28;1678559;85;21525;-55
2020/12/23 08:59:05;;;;;;;3.95;2.35;;;;;;;7.42;60.80;96642.86;1678838;84;21124;-55
2020/12/23 09:01:37;;;;;;;2.05;1.90;;;;;;;7.34;60.98;96640.73;1678814;85;21107;-55
2020/12/23 09:04:10;;;;;;;2.10;2.00;;;;;;;7.28;61.09;96638.50;1678885;85;21110;-54
2020/12/23 09:06:42;;;;;;;1.70;1.60;;;;;;;7.23;61.33;96622.45;1678858;85;21383;-55
2020/12/23 09:09:19;;;;;;;2.17;1.92;;;;;;;7.19;61.51;96637.28;1678787;85;21145;-54
2020/12/23 09:11:54;;;;;;;2.27;1.75;;;;;;;7.20;61.43;96624.73;1678818;85;21193;-54
2020/12/23 09:14:28;;;;;;;3.12;1.85;;;;;;;7.19;61.38;96611.47;1678813;85;21097;-55
2020/12/23 09:17:14;;;;;;;1.90;1.80;;;;;;;7.19;61.33;96590.36;1704624;83;21085;-55
2020/12/23 09:20:02;;;;;;;2.30;2.10;;;;;;;7.18;61.49;96612.38;1720369;83;23510;-55
2020/12/23 09:25:20;;;;;;;2.83;2.62;;;;;;;7.27;61.57;96624.77;1845087;77;28160;-55
2020/12/23 09:28:12;;;;;;;2.33;2.12;;;;;;;7.26;61.28;96628.26;1823255;78;21055;-56
2020/12/23 09:30:49;;;;;;;2.40;2.20;;;;;;;7.30;61.05;96626.33;1823454;78;22622;-55
2020/12/23 09:33:21;;;;;;;3.98;2.25;;;;;;;7.30;60.96;96602.66;1820936;78;21082;-55
2020/12/23 09:35:51;;;;;;;2.30;2.10;;;;;;;7.30;61.02;96599.23;1823762;78;21075;-56
2020/12/23 09:38:24;;;;;;;2.08;1.95;;;;;;;7.30;60.90;96598.79;1823742;78;21528;-56
2020/12/23 09:40:54;;;;;;;2.00;1.90;;;;;;;7.32;61.05;96587.09;1823702;78;21110;-55
2020/12/23 09:43:24;;;;;;;2.02;1.92;;;;;;;7.32;60.96;96575.48;1823716;78;21300;-55
2020/12/23 09:45:55;;;;;;;2.50;2.30;;;;;;;7.35;60.88;96579.14;1803666;78;21161;-55
2020/12/23 09:48:24;;;;;;;1.98;1.85;;;;;;;7.32;60.91;96573.72;1791317;80;21558;-55
2020/12/23 09:50:54;;;;;;;2.62;2.37;;;;;;;7.31;61.08;96576.38;1788775;80;21142;-56
2020/12/23 09:53:24;;;;;;;2.83;2.25;;;;;;;7.28;61.26;96585.12;1787652;80;21110;-55
2020/12/23 09:55:54;;;;;;;2.50;2.33;;;;;;;7.26;61.23;96570.19;1787600;79;21607;-55
2020/12/23 09:58:22;;;;;;;2.40;2.05;;;;;;;7.26;61.42;96574.06;1787764;80;21145;-56
2020/12/23 10:00:51;;;;;;;2.40;2.15;;;;;;;7.30;61.25;96565.67;1791196;78;21166;-56
2020/12/23 10:03:21;;;;;;;3.95;2.27;;;;;;;7.31;61.17;96560.89;1793430;78;21173;-55
2020/12/23 10:05:49;;;;;;;2.85;2.30;;;;;;;7.33;61.35;96565.50;1823620;78;21039;-54
2020/12/23 10:08:17;;;;;;;3.92;2.08;;;;;;;7.40;61.17;96560.38;1823698;78;21476;-55
2020/12/23 10:10:46;;;;;;;2.62;2.42;;;;;;;7.45;61.11;96550.61;1823773;78;20948;-55
2020/12/23 10:13:15;;;;;;;3.25;2.50;;;;;;;7.50;61.23;96544.71;1823726;78;21070;-56
2020/12/23 10:15:43;;;;;;;2.50;2.20;;;;;;;7.52;60.97;96542.86;1806193;78;21146;-56
2020/12/23 10:18:10;;;;;;;3.12;2.30;;;;;;;7.54;61.03;96534.55;1791429;78;21554;-55
2020/12/23 10:20:39;;;;;;;3.08;2.77;;;;;;;7.58;60.93;96549.88;1791416;80;26562;-56
2020/12/23 10:23:07;;;;;;;3.95;3.55;;;;;;;7.58;61.07;96544.23;1791127;80;21244;-55
2020/12/23 10:25:36;;;;;;;4.25;3.47;;;;;;;7.57;61.38;96549.05;1783315;80;21071;-55
2020/12/23 10:28:04;;;;;;;3.60;3.25;;;;;;;7.58;61.53;96523.58;1796244;79;21067;-55
2020/12/23 10:30:32;;;;;;;4.30;3.40;;;;;;;7.58;61.61;96532.61;1814819;79;21119;-55
2020/12/23 10:33:01;;;;;;;2.83;2.60;;;;;;;7.60;61.63;96524.34;1813453;79;21375;-55
2020/12/23 10:35:29;;;;;;;3.05;2.67;;;;;;;7.60;61.83;96520.91;1814941;79;21197;-55
2020/12/23 10:37:57;;;;;;;2.33;2.12;;;;;;;7.61;62.06;96518.70;1814822;79;21476;-55
2020/12/23 10:40:24;;;;;;;2.42;2.10;;;;;;;7.64;62.09;96517.23;1782877;79;21094;-55
2020/12/23 10:42:53;;;;;;;2.40;2.15;;;;;;;7.66;62.22;96525.71;1814947;78;21122;-55
2020/12/23 10:45:21;;;;;;;2.27;2.08;;;;;;;7.66;62.25;96520.08;1802272;79;21165;-56
2020/12/23 10:47:48;;;;;;;2.27;2.08;;;;;;;7.65;62.29;96522.31;1782582;80;21078;-55
2020/12/23 10:50:16;;;;;;;2.72;2.47;;;;;;;7.66;62.22;96524.42;1790744;79;21523;-55
2020/12/23 10:52:43;;;;;;;3.05;2.70;;;;;;;7.66;62.32;96511.51;1782619;80;21067;-55
2020/12/23 10:55:11;;;;;;;3.20;2.77;;;;;;;7.63;62.71;96517.70;1782632;80;21126;-55
2020/12/23 10:57:39;;;;;;;5.08;2.80;;;;;;;7.64;62.52;96521.92;1782640;80;21248;-55
2020/12/23 11:00:07;;;;;;;2.70;2.22;;;;;;;7.59;62.59;96521.84;1782695;79;21055;-56
2020/12/23 11:02:35;;;;;;;2.87;2.58;;;;;;;7.56;62.15;96516.39;1782751;80;21059;-54
2020/12/23 11:05:02;;;;;;;2.52;2.33;;;;;;;7.49;62.60;96526.25;1784785;79;21157;-56
2020/12/23 11:07:30;;;;;;;3.45;3.15;;;;;;;7.46;62.32;96530.30;1782618;80;21126;-55
2020/12/23 11:09:59;;;;;;;2.70;2.50;;;;;;;7.43;62.54;96522.73;1782076;80;21359;-54
2020/12/23 11:12:27;;;;;;;4.10;3.10;;;;;;;7.41;63.08;96505.70;1782561;80;21495;-55
2020/12/23 11:14:55;;;;;;;6.17;2.55;;;;;;;7.40;63.73;96525.53;1791080;79;21492;-55
2020/12/23 11:17:22;;;;;;;3.12;2.60;;;;;;;7.38;64.28;96548.00;1814691;78;21111;-56
2020/12/23 11:19:51;;;;;;;2.65;2.45;;;;;;;7.41;64.85;96552.16;1814831;79;21118;-55
2020/12/23 11:22:19;;;;;;;2.10;1.90;;;;;;;7.42;64.68;96548.20;1814657;79;21194;-53
2020/12/23 11:24:48;;;;;;;3.47;3.00;;;;;;;7.35;65.13;96545.59;1780514;79;21083;-54
2020/12/23 11:27:16;;;;;;;3.27;2.98;;;;;;;7.28;65.14;96545.59;1814731;79;21107;-54
2020/12/23 11:29:44;;;;;;;2.37;2.17;;;;;;;7.19;65.78;96537.45;1808564;79;26474;-54
2020/12/23 11:32:13;;;;;;;2.45;2.25;;;;;;;7.14;65.83;96545.11;1782821;79;21141;-54
2020/12/23 11:34:41;;;;;;;2.98;2.40;;;;;;;7.13;66.00;96538.27;1782695;80;21239;-54
2020/12/23 11:37:11;;;;;;;4.92;3.20;;;;;;;7.14;66.50;96545.11;1752490;80;21134;-55
2020/12/23 11:39:38;;;;;;;6.75;4.97;;;;;;;7.11;66.62;96544.81;1782653;80;21059;-55
2020/12/23 11:42:07;;;;;;;5.45;4.10;;;;;;;7.10;66.86;96537.97;1782744;80;21524;-55
2020/12/23 11:44:34;;;;;;;3.92;3.55;;;;;;;7.09;67.36;96541.93;1786410;79;21658;-54
2020/12/23 11:47:02;;;;;;;3.13;2.70;;;;;;;7.03;67.98;96529.41;1814942;79;21772;-56
2020/12/23 11:49:31;;;;;;;2.85;2.55;;;;;;;6.96;68.41;96527.64;1808239;79;21656;-54
2020/12/23 11:51:58;;;;;;;3.00;2.50;;;;;;;6.96;68.94;96527.17;1782531;80;21071;-54
2020/12/23 11:54:26;;;;;;;2.83;2.53;;;;;;;6.90;69.00;96539.12;1782840;80;21233;-54
2020/12/23 11:56:55;;;;;;;2.87;2.67;;;;;;;6.81;69.21;96535.32;1782589;80;21059;-55